Details From LPPT - Lisboa
To FQMA - Maputo
Flight Number -
Tags Real Decoded
Created
Modified
Stats Distance 4,537 nm / 8,403 km
Max Altitude 0 ft / 0 m
Waypoints 2
Social Downloads 14
Likes 1
Share VATSIM

Download

Looking for another format? Having issues loading an existing format? Contact us
Advertisement - Login to hide

Notes

Decoded

Route

LPPT FQMA

ID Type Via Altitude Latitude Longitude Leg Dist Tot Dist Heading (true) Name
O LPPT APT - 0 ft / 0 m 38.78624˚ -9.13721˚ - 0 nm - -
O FQMA APT - 0 ft / 0 m -25.92119˚ 32.56636˚ 4537 nm 4537 nm 142° / 148° -

Altitude Profile

Advertisement - Login to hide

Weather


0- 5 10 15 20 25 30 35+ Temperature / ° C

Clouds and Precipitation
Forecast for 2017-12-11 18:00 UTC. Updated 26 minutes ago

Ground ~20,000 ft ~40,000 ft Winds

LPPT

Details ICAO LPPT (LIS)
Name Lisboa
Region Portugal
Timezone Europe/Lisbon (UTC+0.0)
Stats Elevation 374 ft / 114 m (AMSL)
Location 38.778559° -9.135146°
Runways 2
Magnetic Variation 2.365° W

METAR

LPPT 111730Z 34010KT 9999 FEW030 FEW035TCU 10/05 Q1007 WS R03

Decode

TAF

TAF LPPT 111100Z 1112/1218 33015KT 9999 SCT018 TEMPO 1112/1118 32020G30KT 8000 SHRA BKN015 FEW025CB PROB30 TEMPO 1112/1115 3000 TSRAGS FEW018CB BECMG 1118/1121 36007KT FEW020

Decode

Departure Runways

ID Width Length Bearing (true) Bearing (mag) Surface Threshold Offset Overrun Length
03 148 ft / 45 m 12,518 ft / 3,815 m 22.70° 25.07° Asphalt 296 ft / 90 m 0 ft / 0 m
17 148 ft / 45 m 7,922 ft / 2,415 m 168.38° 170.75° Asphalt 0 ft / 0 m 0 ft / 0 m
21 148 ft / 45 m 12,518 ft / 3,815 m 202.72° 205.09° Asphalt 1,969 ft / 600 m 0 ft / 0 m
35 148 ft / 45 m 7,922 ft / 2,415 m 348.38° 350.75° Asphalt 492 ft / 150 m 0 ft / 0 m

FQMA

Details ICAO FQMA (MPM)
Name MAPUTO
Region Mozambique
Timezone Africa/Maputo (UTC+2.0)
Stats Elevation 145 ft / 44 m (AMSL)
Location -25.915529° 32.576901°
Runways 2
Magnetic Variation 20.194° W

METAR

FQMA 111700Z 09007KT 9999 BKN020 23/18 Q1012 NOSIG

Decode

TAF

TAF FQMA 111000Z 1112/1218 06012KT 9999 BKN020 FEW030CB BECMG 1118/1120 36010KT PROB30 TEMPO 1118/1200 5000 -TSRA SCT010 BKN018 FEW025CB BECMG 1206/1208 35010G20KT BKN020 TN17/1203Z TX27/1113Z

Decode

Destination Runways

ID Width Length Bearing (true) Bearing (mag) Surface Threshold Offset Overrun Length
05 148 ft / 45 m 12,063 ft / 3,677 m 28.75° 48.94° Asphalt 0 ft / 0 m 238 ft / 73 m
10 148 ft / 45 m 5,560 ft / 1,695 m 86.29° 106.48° Asphalt 0 ft / 0 m 0 ft / 0 m
23 148 ft / 45 m 12,063 ft / 3,677 m 208.74° 228.93° Asphalt 0 ft / 0 m 984 ft / 300 m
28 148 ft / 45 m 5,560 ft / 1,695 m 266.28° 286.47° Asphalt 0 ft / 0 m 0 ft / 0 m

Approach Navaids

Runway Type Ident Frequency Range Bearing (true) Bearing (mag) Slope Elevation
23 Localiser IMA 110.30 MHz 18 nm / 33 km 208.75° 228.95° - 145 ft / 44 m (AMSL)
23 Glidescope IMA 110.30 MHz 10 nm / 19 km 208.75° 228.94° 3.00° 145 ft / 44 m (AMSL)

Popular Alternatives